North Vidor, Texas
Current Conditions -  °F | °C
As of 3:15 PM on Wednesday 26 Nov 2014 (Local Time) from KBMT Reporting Station
Clear Clear  
Wind Chill: 70°   Ceiling: Unl
Heat Index: 70°   Visibility: 10mi
Dew Point: 40°   Wind: 14mph
Humidity: 34%   Direction: 220°SW
Pressure: 30.18"   Gusts: 18mph
Location:  30.1707°N, 94.0082°W
Report Text: KBMT 262115Z AUTO 22012G16KT 10SM CLR 21/05 A3018 RMK AO2 T02110047
Loading
Personal Weather Stations






























Interactive Weather Map New forecast layout! Learn more

10-Day Weather Forecast

Advertisements
Track Severe Weather on mobile